VXP343 KHVN-KSAV
Flight info
| Callsign | VXP343 |
|---|---|
| Flight time | N/A |
| Altitude | 30000 |
| Route | BEADS EMJAY Q167 ZJAAY Q97 SAWED GUILD Q409 SESUE LGRHD SOOOP |
| Aircraft | B738/M-SDE2E3FGHIRWXY/LB1 |
Departure
| Time | 2026-05-08 20:37 |
|---|---|
| Airport | Tweed New Haven Airport (KHVN) |
Arrival
| Time | N/A |
|---|---|
| Airport | Savannah Hilton Head International Airport (KSAV) |
| Time | Latitude | Longitude | Altitude | Speed | Heading |
|---|---|---|---|---|---|
| 2026-05-08 20:30 | 41.26829 | -72.89028 | 26 ft | 2 kts | 310° |
| 2026-05-08 20:30 | 41.26819 | -72.89013 | 26 ft | 1 kts | 325° |
| 2026-05-08 20:30 | 41.26808 | -72.89009 | 26 ft | 0 kts | 5° |
| 2026-05-08 20:30 | 41.26802 | -72.89010 | 26 ft | 1 kts | 11° |
| 2026-05-08 20:31 | 41.26800 | -72.89011 | 26 ft | 0 kts | 9° |
| 2026-05-08 20:35 | 41.26802 | -72.89010 | 26 ft | 2 kts | 9° |
| 2026-05-08 20:36 | 41.26845 | -72.88953 | 26 ft | 15 kts | 56° |
| 2026-05-08 20:36 | 41.26935 | -72.88904 | 26 ft | 13 kts | 3° |
| 2026-05-08 20:36 | 41.27024 | -72.88876 | 26 ft | 12 kts | 35° |
| 2026-05-08 20:36 | 41.27090 | -72.88806 | 26 ft | 11 kts | 38° |
| 2026-05-08 20:37 | 41.27068 | -72.88726 | 26 ft | 23 kts | 176° |
| 2026-05-08 20:37 | 41.26626 | -72.88754 | 26 ft | 101 kts | 184° |
| 2026-05-08 20:37 | 41.25709 | -72.88816 | 38 ft | 158 kts | 184° |
| 2026-05-08 20:37 | 41.24629 | -72.88826 | 706 ft | 155 kts | 188° |
| 2026-05-08 20:38 | 41.23488 | -72.88510 | 1066 ft | 188 kts | 153° |
| 2026-05-08 20:38 | 41.22388 | -72.87366 | 1605 ft | 210 kts | 144° |
| 2026-05-08 20:38 | 41.21132 | -72.86240 | 1990 ft | 230 kts | 154° |
| 2026-05-08 20:38 | 41.19646 | -72.85231 | 1974 ft | 246 kts | 158° |
| 2026-05-08 20:39 | 41.18024 | -72.84206 | 2126 ft | 272 kts | 158° |
| 2026-05-08 20:39 | 41.16317 | -72.83099 | 2943 ft | 277 kts | 158° |
| 2026-05-08 20:39 | 41.14610 | -72.81954 | 3868 ft | 276 kts | 158° |
| 2026-05-08 20:39 | 41.12900 | -72.80800 | 4699 ft | 280 kts | 157° |
| 2026-05-08 20:40 | 41.11175 | -72.79616 | 5533 ft | 282 kts | 158° |
| 2026-05-08 20:40 | 41.09434 | -72.78432 | 6353 ft | 285 kts | 158° |
| 2026-05-08 20:40 | 41.07662 | -72.77235 | 7091 ft | 290 kts | 158° |
| 2026-05-08 20:40 | 41.05845 | -72.76014 | 7780 ft | 298 kts | 158° |
| 2026-05-08 20:41 | 41.03991 | -72.74763 | 8518 ft | 303 kts | 158° |
| 2026-05-08 20:41 | 41.02105 | -72.73488 | 9210 ft | 309 kts | 158° |
| 2026-05-08 20:41 | 41.00174 | -72.72194 | 9904 ft | 315 kts | 158° |
| 2026-05-08 20:41 | 40.98208 | -72.70873 | 10468 ft | 325 kts | 158° |
| 2026-05-08 20:42 | 40.96137 | -72.69487 | 10838 ft | 342 kts | 158° |
| 2026-05-08 20:42 | 40.93975 | -72.68045 | 11265 ft | 356 kts | 158° |
| 2026-05-08 20:42 | 40.91722 | -72.66551 | 11686 ft | 370 kts | 158° |
| 2026-05-08 20:42 | 40.89368 | -72.64991 | 12044 ft | 386 kts | 158° |
| 2026-05-08 20:43 | 40.86925 | -72.63368 | 12397 ft | 401 kts | 158° |
| 2026-05-08 20:43 | 40.84399 | -72.61686 | 12873 ft | 411 kts | 157° |
| 2026-05-08 20:43 | 40.81832 | -72.59977 | 13508 ft | 417 kts | 158° |
| 2026-05-08 20:43 | 40.79206 | -72.58376 | 14176 ft | 418 kts | 163° |
| 2026-05-08 20:44 | 40.76417 | -72.57375 | 14718 ft | 414 kts | 180° |
| 2026-05-08 20:44 | 40.73593 | -72.57490 | 15362 ft | 404 kts | 197° |
| 2026-05-08 20:44 | 40.70942 | -72.58536 | 16026 ft | 395 kts | 210° |
| 2026-05-08 20:44 | 40.68538 | -72.60213 | 16563 ft | 392 kts | 220° |
| 2026-05-08 20:45 | 40.66320 | -72.62265 | 17224 ft | 391 kts | 225° |
| 2026-05-08 20:45 | 40.64204 | -72.64499 | 17844 ft | 391 kts | 227° |
| 2026-05-08 20:45 | 40.62142 | -72.66836 | 18479 ft | 393 kts | 229° |
| 2026-05-08 20:45 | 40.60096 | -72.69213 | 19099 ft | 395 kts | 229° |
| 2026-05-08 20:46 | 40.58033 | -72.71613 | 19685 ft | 399 kts | 229° |
| 2026-05-08 20:46 | 40.55949 | -72.74010 | 20282 ft | 401 kts | 229° |
| 2026-05-08 20:46 | 40.53849 | -72.76403 | 20956 ft | 402 kts | 229° |
| 2026-05-08 20:46 | 40.51728 | -72.78810 | 21448 ft | 406 kts | 228° |
| 2026-05-08 20:47 | 40.49588 | -72.81228 | 22070 ft | 407 kts | 228° |
| 2026-05-08 20:47 | 40.47441 | -72.83643 | 22638 ft | 409 kts | 229° |
| 2026-05-08 20:47 | 40.45277 | -72.86077 | 23109 ft | 413 kts | 229° |
| 2026-05-08 20:47 | 40.43095 | -72.88527 | 23678 ft | 414 kts | 228° |